sensor_id;sensor_type;location;lat;lon;timestamp;pressure;altitude;pressure_sealevel;temperature;humidity
39449;BME280;25151;45.566;9.382;2023-02-24T00:02:26;99660.09;;;19.71;56.29
39449;BME280;25151;45.566;9.382;2023-02-24T00:05:32;99664.13;;;19.70;56.33
39449;BME280;25151;45.566;9.382;2023-02-24T00:08:33;99659.00;;;19.69;56.36
39449;BME280;25151;45.566;9.382;2023-02-24T00:11:35;99647.47;;;19.67;56.21
39449;BME280;25151;45.566;9.382;2023-02-24T00:14:39;99649.03;;;19.68;56.21
39449;BME280;25151;45.566;9.382;2023-02-24T00:17:43;99648.69;;;19.65;56.19
39449;BME280;25151;45.566;9.382;2023-02-24T00:20:47;99652.28;;;19.66;56.11
39449;BME280;25151;45.566;9.382;2023-02-24T00:23:48;99647.91;;;19.65;56.31
39449;BME280;25151;45.566;9.382;2023-02-24T00:26:54;99652.28;;;19.66;56.17
39449;BME280;25151;45.566;9.382;2023-02-24T00:29:55;99651.50;;;19.65;56.18
39449;BME280;25151;45.566;9.382;2023-02-24T00:32:56;99641.19;;;19.62;56.09
39449;BME280;25151;45.566;9.382;2023-02-24T00:36:26;99634.81;;;19.62;56.07
39449;BME280;25151;45.566;9.382;2023-02-24T00:39:31;99641.19;;;19.62;56.15
39449;BME280;25151;45.566;9.382;2023-02-24T00:42:39;99633.22;;;19.61;56.19
39449;BME280;25151;45.566;9.382;2023-02-24T00:45:41;99631.66;;;19.60;55.94
39449;BME280;25151;45.566;9.382;2023-02-24T00:48:49;99630.44;;;19.61;56.04
39449;BME280;25151;45.566;9.382;2023-02-24T00:51:54;99623.72;;;19.58;55.94
39449;BME280;25151;45.566;9.382;2023-02-24T00:54:55;99629.31;;;19.58;56.02
39449;BME280;25151;45.566;9.382;2023-02-24T00:57:57;99628.53;;;19.58;55.94
39449;BME280;25151;45.566;9.382;2023-02-24T01:00:58;99623.38;;;19.56;56.07
39449;BME280;25151;45.566;9.382;2023-02-24T01:04:02;99623.72;;;19.58;56.08
39449;BME280;25151;45.566;9.382;2023-02-24T01:07:10;99626.19;;;19.56;55.94
39449;BME280;25151;45.566;9.382;2023-02-24T01:10:12;99620.59;;;19.56;56.13
39449;BME280;25151;45.566;9.382;2023-02-24T01:13:13;99620.25;;;19.54;56.16
39449;BME280;25151;45.566;9.382;2023-02-24T01:16:13;99623.03;;;19.54;56.06
39449;BME280;25151;45.566;9.382;2023-02-24T01:19:21;99621.38;;;19.57;56.09
39449;BME280;25151;45.566;9.382;2023-02-24T01:22:22;99613.41;;;19.55;55.98
39449;BME280;25151;45.566;9.382;2023-02-24T01:25:23;99615.44;;;19.55;56.06
39449;BME280;25151;45.566;9.382;2023-02-24T01:28:25;99621.81;;;19.55;55.88
39449;BME280;25151;45.566;9.382;2023-02-24T01:31:27;99619.00;;;19.55;55.86
39449;BME280;25151;45.566;9.382;2023-02-24T01:34:31;99611.84;;;19.54;55.84
39449;BME280;25151;45.566;9.382;2023-02-24T01:37:34;99611.84;;;19.54;55.84
39449;BME280;25151;45.566;9.382;2023-02-24T01:40:36;99611.84;;;19.54;56.00
39449;BME280;25151;45.566;9.382;2023-02-24T01:47:25;99598.75;;;19.51;55.89
39449;BME280;25151;45.566;9.382;2023-02-24T01:50:31;99598.75;;;19.51;56.05
39449;BME280;25151;45.566;9.382;2023-02-24T01:53:38;99595.97;;;19.51;56.00
39449;BME280;25151;45.566;9.382;2023-02-24T01:56:45;99588.81;;;19.50;55.78
39449;BME280;25151;45.566;9.382;2023-02-24T01:59:48;99576.06;;;19.49;55.88
39449;BME280;25151;45.566;9.382;2023-02-24T02:02:50;99584.09;;;19.47;55.79
39449;BME280;25151;45.566;9.382;2023-02-24T02:05:58;99584.88;;;19.48;55.88
39449;BME280;25151;45.566;9.382;2023-02-24T02:09:00;99585.69;;;19.48;55.91
39449;BME280;25151;45.566;9.382;2023-02-24T02:12:02;99584.09;;;19.47;55.93
39449;BME280;25151;45.566;9.382;2023-02-24T02:15:04;99578.63;;;19.44;55.71
39449;BME280;25151;45.566;9.382;2023-02-24T02:22:38;99574.16;;;19.46;55.95
39449;BME280;25151;45.566;9.382;2023-02-24T02:25:37;99583.78;;;19.45;55.75
39449;BME280;25151;45.566;9.382;2023-02-24T02:32:45;99568.56;;;19.46;55.70
39449;BME280;25151;45.566;9.382;2023-02-24T02:42:53;99565.75;;;19.46;55.90
39449;BME280;25151;45.566;9.382;2023-02-24T02:46:11;99565.75;;;19.46;55.85
39449;BME280;25151;45.566;9.382;2023-02-24T02:49:37;99557.84;;;19.45;55.71
39449;BME280;25151;45.566;9.382;2023-02-24T02:56:04;99558.25;;;19.43;55.63
39449;BME280;25151;45.566;9.382;2023-02-24T02:59:11;99552.34;;;19.41;55.84
39449;BME280;25151;45.566;9.382;2023-02-24T03:02:17;99553.13;;;19.41;55.83
39449;BME280;25151;45.566;9.382;2023-02-24T03:05:31;99558.72;;;19.41;55.69
39449;BME280;25151;45.566;9.382;2023-02-24T03:08:38;99565.09;;;19.42;55.59
39449;BME280;25151;45.566;9.382;2023-02-24T03:11:49;99550.34;;;19.41;55.67
39449;BME280;25151;45.566;9.382;2023-02-24T03:14:59;99556.34;;;19.40;55.94
39449;BME280;25151;45.566;9.382;2023-02-24T03:18:08;99556.34;;;19.40;55.71
39449;BME280;25151;45.566;9.382;2023-02-24T03:21:25;99557.94;;;19.41;55.57
39449;BME280;25151;45.566;9.382;2023-02-24T03:24:37;99565.56;;;19.40;55.76
39449;BME280;25151;45.566;9.382;2023-02-24T03:27:46;99558.84;;;19.38;55.75
39449;BME280;25151;45.566;9.382;2023-02-24T03:30:58;99550.75;;;19.40;55.88
39449;BME280;25151;45.566;9.382;2023-02-24T03:34:17;99554.03;;;19.38;55.73
39449;BME280;25151;45.566;9.382;2023-02-24T03:37:25;99562.88;;;19.37;55.56
39449;BME280;25151;45.566;9.382;2023-02-24T03:40:27;99561.28;;;19.36;55.58
39449;BME280;25151;45.566;9.382;2023-02-24T03:43:36;99558.47;;;19.36;55.70
39449;BME280;25151;45.566;9.382;2023-02-24T03:46:39;99563.66;;;19.37;55.58
39449;BME280;25151;45.566;9.382;2023-02-24T03:49:51;99554.47;;;19.37;55.73
39449;BME280;25151;45.566;9.382;2023-02-24T03:56:46;99546.88;;;19.37;55.92
39449;BME280;25151;45.566;9.382;2023-02-24T04:00:14;99540.94;;;19.35;55.64
39449;BME280;25151;45.566;9.382;2023-02-24T04:04:02;99532.53;;;19.35;55.70
39449;BME280;25151;45.566;9.382;2023-02-24T04:07:17;99528.97;;;19.35;55.49
39449;BME280;25151;45.566;9.382;2023-02-24T04:10:35;99525.38;;;19.34;55.70
39449;BME280;25151;45.566;9.382;2023-02-24T04:13:44;99535.78;;;19.34;55.69
39449;BME280;25151;45.566;9.382;2023-02-24T04:17:03;99530.19;;;19.34;55.57
39449;BME280;25151;45.566;9.382;2023-02-24T04:20:23;99527.41;;;19.34;55.67
39449;BME280;25151;45.566;9.382;2023-02-24T04:23:45;99529.53;;;19.30;55.73
39449;BME280;25151;45.566;9.382;2023-02-24T04:26:47;99531.44;;;19.33;55.47
39449;BME280;25151;45.566;9.382;2023-02-24T04:29:53;99530.19;;;19.34;55.58
39449;BME280;25151;45.566;9.382;2023-02-24T04:32:54;99534.25;;;19.33;55.41
39449;BME280;25151;45.566;9.382;2023-02-24T04:35:55;99533.47;;;19.32;55.65
39449;BME280;25151;45.566;9.382;2023-02-24T04:39:00;99535.00;;;19.33;55.60
39449;BME280;25151;45.566;9.382;2023-02-24T04:42:00;99523.94;;;19.30;55.67
39449;BME280;25151;45.566;9.382;2023-02-24T04:45:01;99519.91;;;19.31;55.54
39449;BME280;25151;45.566;9.382;2023-02-24T04:48:09;99518.66;;;19.32;55.49
39449;BME280;25151;45.566;9.382;2023-02-24T04:51:12;99514.31;;;19.31;55.75
39449;BME280;25151;45.566;9.382;2023-02-24T04:54:15;99511.19;;;19.29;55.68
39449;BME280;25151;45.566;9.382;2023-02-24T04:57:19;99504.69;;;19.32;55.52
39449;BME280;25151;45.566;9.382;2023-02-24T05:00:22;99499.09;;;19.32;55.62
39449;BME280;25151;45.566;9.382;2023-02-24T05:03:24;99491.63;;;19.29;55.55
39449;BME280;25151;45.566;9.382;2023-02-24T05:06:28;99497.53;;;19.31;55.65
39449;BME280;25151;45.566;9.382;2023-02-24T05:09:29;99504.38;;;19.30;55.64
39449;BME280;25151;45.566;9.382;2023-02-24T05:12:30;99497.22;;;19.29;55.66
39449;BME280;25151;45.566;9.382;2023-02-24T05:15:32;99492.53;;;19.26;55.60
39449;BME280;25151;45.566;9.382;2023-02-24T05:18:33;99488.84;;;19.29;55.41
39449;BME280;25151;45.566;9.382;2023-02-24T05:21:37;99488.84;;;19.29;55.53
39449;BME280;25151;45.566;9.382;2023-02-24T05:24:37;99487.25;;;19.28;55.61
39449;BME280;25151;45.566;9.382;2023-02-24T05:27:40;99481.66;;;19.28;55.52
39449;BME280;25151;45.566;9.382;2023-02-24T05:30:41;99481.66;;;19.28;55.66
39449;BME280;25151;45.566;9.382;2023-02-24T05:33:44;99482.91;;;19.27;55.57
39449;BME280;25151;45.566;9.382;2023-02-24T05:36:45;99478.53;;;19.26;55.66
39449;BME280;25151;45.566;9.382;2023-02-24T05:39:46;99468.16;;;19.26;55.63
39449;BME280;25151;45.566;9.382;2023-02-24T05:42:46;99472.19;;;19.25;55.68
39449;BME280;25151;45.566;9.382;2023-02-24T05:45:47;99469.38;;;19.25;55.53
39449;BME280;25151;45.566;9.382;2023-02-24T05:48:51;99470.16;;;19.26;55.70
39449;BME280;25151;45.566;9.382;2023-02-24T05:51:57;99467.38;;;19.26;55.35
39449;BME280;25151;45.566;9.382;2023-02-24T05:55:00;99462.56;;;19.26;55.46
39449;BME280;25151;45.566;9.382;2023-02-24T05:58:05;99467.38;;;19.26;55.62
39449;BME280;25151;45.566;9.382;2023-02-24T06:01:11;99466.59;;;19.25;55.54
39449;BME280;25151;45.566;9.382;2023-02-24T06:04:15;99470.16;;;19.26;55.55
39449;BME280;25151;45.566;9.382;2023-02-24T06:07:35;99471.41;;;19.25;55.54
39449;BME280;25151;45.566;9.382;2023-02-24T06:10:37;99474.63;;;19.23;55.55
39449;BME280;25151;45.566;9.382;2023-02-24T06:13:39;99485.38;;;19.25;55.55
39449;BME280;25151;45.566;9.382;2023-02-24T06:16:40;99472.28;;;19.22;55.56
39449;BME280;25151;45.566;9.382;2023-02-24T06:19:43;99473.84;;;19.23;55.50
39449;BME280;25151;45.566;9.382;2023-02-24T06:22:44;99468.25;;;19.23;55.36
39449;BME280;25151;45.566;9.382;2023-02-24T06:25:45;99464.69;;;19.22;55.56
39449;BME280;25151;45.566;9.382;2023-02-24T06:28:46;99467.47;;;19.22;55.38
39449;BME280;25151;45.566;9.382;2023-02-24T06:31:47;99478.66;;;19.22;55.49
39449;BME280;25151;45.566;9.382;2023-02-24T06:34:49;99475.41;;;19.24;55.42
39449;BME280;25151;45.566;9.382;2023-02-24T06:37:51;99482.22;;;19.23;55.64
39449;BME280;25151;45.566;9.382;2023-02-24T06:40:57;99488.28;;;19.21;55.60
39449;BME280;25151;45.566;9.382;2023-02-24T06:43:58;99495.44;;;19.22;55.35
39449;BME280;25151;45.566;9.382;2023-02-24T06:46:59;99488.72;;;19.20;55.48
39449;BME280;25151;45.566;9.382;2023-02-24T06:50:00;99497.75;;;19.24;55.55
39449;BME280;25151;45.566;9.382;2023-02-24T06:53:01;99504.94;;;19.25;55.66
39449;BME280;25151;45.566;9.382;2023-02-24T06:56:05;99509.63;;;19.28;55.39
39449;BME280;25151;45.566;9.382;2023-02-24T06:59:14;99510.28;;;19.32;55.48
39449;BME280;25151;45.566;9.382;2023-02-24T07:02:21;99506.03;;;19.40;55.56
39449;BME280;25151;45.566;9.382;2023-02-24T07:05:24;99506.72;;;19.44;55.50
39449;BME280;25151;45.566;9.382;2023-02-24T07:08:26;99512.97;;;19.48;55.53
39449;BME280;25151;45.566;9.382;2023-02-24T07:11:28;99501.78;;;19.48;55.49
39449;BME280;25151;45.566;9.382;2023-02-24T07:14:29;99510.72;;;19.56;55.29
39449;BME280;25151;45.566;9.382;2023-02-24T07:17:31;99506.16;;;19.62;55.33
39449;BME280;25151;45.566;9.382;2023-02-24T07:20:33;99502.00;;;19.67;55.20
39449;BME280;25151;45.566;9.382;2023-02-24T07:23:34;99503.31;;;19.75;55.05
39449;BME280;25151;45.566;9.382;2023-02-24T07:26:35;99499.97;;;19.80;54.95
39449;BME280;25151;45.566;9.382;2023-02-24T07:29:41;99508.44;;;19.89;54.93
39449;BME280;25151;45.566;9.382;2023-02-24T07:32:42;99491.19;;;19.90;54.94
39449;BME280;25151;45.566;9.382;2023-02-24T07:35:49;99506.38;;;20.02;54.99
39449;BME280;25151;45.566;9.382;2023-02-24T07:38:53;99511.75;;;20.09;54.87
39449;BME280;25151;45.566;9.382;2023-02-24T07:41:57;99509.94;;;20.16;54.57
39449;BME280;25151;45.566;9.382;2023-02-24T07:45:02;99515.72;;;20.21;54.48
39449;BME280;25151;45.566;9.382;2023-02-24T07:48:04;99510.31;;;20.27;54.55
39449;BME280;25151;45.566;9.382;2023-02-24T07:51:09;99512.56;;;20.32;54.53
39449;BME280;25151;45.566;9.382;2023-02-24T07:54:11;99512.44;;;20.35;54.37
39449;BME280;25151;45.566;9.382;2023-02-24T07:57:14;99505.13;;;20.38;54.16
39449;BME280;25151;45.566;9.382;2023-02-24T08:00:18;99499.84;;;20.40;54.30
39449;BME280;25151;45.566;9.382;2023-02-24T08:03:20;99501.75;;;20.43;54.27
39449;BME280;25151;45.566;9.382;2023-02-24T08:06:24;99497.59;;;20.48;54.00
39449;BME280;25151;45.566;9.382;2023-02-24T08:09:48;99495.22;;;20.46;54.06
39449;BME280;25151;45.566;9.382;2023-02-24T08:13:15;99502.75;;;20.49;54.04
39449;BME280;25151;45.566;9.382;2023-02-24T08:16:20;99502.63;;;20.53;54.10
39449;BME280;25151;45.566;9.382;2023-02-24T08:23:15;99495.34;;;20.55;54.11
39449;BME280;25151;45.566;9.382;2023-02-24T08:26:19;99491.72;;;20.55;54.19
39449;BME280;25151;45.566;9.382;2023-02-24T08:29:27;99495.00;;;20.53;54.13
39449;BME280;25151;45.566;9.382;2023-02-24T08:36:11;99494.88;;;20.57;53.95
39449;BME280;25151;45.566;9.382;2023-02-24T08:39:13;99492.53;;;20.55;54.28
39449;BME280;25151;45.566;9.382;2023-02-24T08:42:14;99482.22;;;20.52;54.17
39449;BME280;25151;45.566;9.382;2023-02-24T08:45:14;99480.69;;;20.51;54.27
39449;BME280;25151;45.566;9.382;2023-02-24T08:48:18;99484.56;;;20.54;53.89
39449;BME280;25151;45.566;9.382;2023-02-24T08:51:37;99478.97;;;20.54;54.08
39449;BME280;25151;45.566;9.382;2023-02-24T08:54:43;99492.97;;;20.54;53.94
39449;BME280;25151;45.566;9.382;2023-02-24T08:57:49;99478.53;;;20.55;53.91
39449;BME280;25151;45.566;9.382;2023-02-24T09:00:57;99482.88;;;20.56;54.14
39449;BME280;25151;45.566;9.382;2023-02-24T09:04:03;99470.78;;;20.59;53.81
39449;BME280;25151;45.566;9.382;2023-02-24T09:07:04;99467.03;;;20.62;54.01
39449;BME280;25151;45.566;9.382;2023-02-24T09:10:16;99467.66;;;20.67;53.71
39449;BME280;25151;45.566;9.382;2023-02-24T09:13:17;99471.13;;;20.71;53.71
39449;BME280;25151;45.566;9.382;2023-02-24T09:16:20;99467.88;;;20.72;53.70
39449;BME280;25151;45.566;9.382;2023-02-24T09:19:22;99465.38;;;20.74;53.77
39449;BME280;25151;45.566;9.382;2023-02-24T09:22:39;99462.13;;;20.76;53.83
39449;BME280;25151;45.566;9.382;2023-02-24T09:25:59;99467.75;;;20.76;53.61
39449;BME280;25151;45.566;9.382;2023-02-24T09:29:12;99478.03;;;20.79;53.71
39449;BME280;25151;45.566;9.382;2023-02-24T09:32:32;99469.28;;;20.77;53.64
39449;BME280;25151;45.566;9.382;2023-02-24T09:35:34;99471.63;;;20.78;53.51
39449;BME280;25151;45.566;9.382;2023-02-24T09:41:59;99468.81;;;20.78;53.42
39449;BME280;25151;45.566;9.382;2023-02-24T09:45:24;99469.16;;;20.80;53.46
39449;BME280;25151;45.566;9.382;2023-02-24T09:48:43;99461.53;;;20.81;53.46
39449;BME280;25151;45.566;9.382;2023-02-24T09:51:47;99462.31;;;20.81;53.42
39449;BME280;25151;45.566;9.382;2023-02-24T09:55:00;99460.28;;;20.82;53.51
39449;BME280;25151;45.566;9.382;2023-02-24T09:58:54;99461.41;;;20.84;53.36
39449;BME280;25151;45.566;9.382;2023-02-24T10:02:53;99453.78;;;20.85;53.16
39449;BME280;25151;45.566;9.382;2023-02-24T10:05:59;99448.81;;;20.89;53.33
39449;BME280;25151;45.566;9.382;2023-02-24T10:12:27;99449.13;;;20.91;53.08
39449;BME280;25151;45.566;9.382;2023-02-24T10:15:32;99446.97;;;20.95;53.28
39449;BME280;25151;45.566;9.382;2023-02-24T10:19:09;99456.47;;;20.98;53.18
39449;BME280;25151;45.566;9.382;2023-02-24T10:22:43;99444.97;;;21.05;52.97
39449;BME280;25151;45.566;9.382;2023-02-24T10:26:01;99437.69;;;21.07;53.00
39449;BME280;25151;45.566;9.382;2023-02-24T10:32:56;99436.91;;;21.07;53.18
39449;BME280;25151;45.566;9.382;2023-02-24T10:36:06;99435.19;;;21.09;53.24
39449;BME280;25151;45.566;9.382;2023-02-24T10:39:28;99429.44;;;21.13;52.90
39449;BME280;25151;45.566;9.382;2023-02-24T10:42:34;99420.56;;;21.15;53.13
39449;BME280;25151;45.566;9.382;2023-02-24T10:45:40;99412.47;;;21.17;53.08
39449;BME280;25151;45.566;9.382;2023-02-24T10:48:53;99411.41;;;21.23;52.86
39449;BME280;25151;45.566;9.382;2023-02-24T10:52:12;99414.22;;;21.23;53.03
39449;BME280;25151;45.566;9.382;2023-02-24T10:55:37;99399.25;;;21.26;53.05
39449;BME280;25151;45.566;9.382;2023-02-24T10:58:45;99400.03;;;21.27;52.83
39449;BME280;25151;45.566;9.382;2023-02-24T11:02:13;99408.91;;;21.25;52.90
39449;BME280;25151;45.566;9.382;2023-02-24T11:05:24;99396.59;;;21.23;52.71
39449;BME280;25151;45.566;9.382;2023-02-24T11:08:37;99393.81;;;21.23;52.93
39449;BME280;25151;45.566;9.382;2023-02-24T11:11:47;99389.75;;;21.24;52.83
39449;BME280;25151;45.566;9.382;2023-02-24T11:15:19;99381.63;;;21.26;53.02
39449;BME280;25151;45.566;9.382;2023-02-24T11:18:45;99374.31;;;21.28;53.00
39449;BME280;25151;45.566;9.382;2023-02-24T11:21:49;99366.69;;;21.29;52.86
39449;BME280;25151;45.566;9.382;2023-02-24T11:24:50;99361.84;;;21.29;52.63
39449;BME280;25151;45.566;9.382;2023-02-24T11:27:55;99344.59;;;21.31;53.11
39449;BME280;25151;45.566;9.382;2023-02-24T11:31:09;99350.34;;;21.27;53.06
39449;BME280;25151;45.566;9.382;2023-02-24T11:37:31;99340.81;;;21.25;53.03
39449;BME280;25151;45.566;9.382;2023-02-24T11:40:41;99336.91;;;21.22;53.27
39449;BME280;25151;45.566;9.382;2023-02-24T11:43:53;99336.13;;;21.22;53.12
39449;BME280;25151;45.566;9.382;2023-02-24T11:47:23;99326.94;;;21.21;52.92
39449;BME280;25151;45.566;9.382;2023-02-24T11:51:15;99318.53;;;21.21;53.40
39449;BME280;25151;45.566;9.382;2023-02-24T11:54:17;99313.84;;;21.18;53.06
39449;BME280;25151;45.566;9.382;2023-02-24T11:57:31;99309.06;;;21.19;52.99
39449;BME280;25151;45.566;9.382;2023-02-24T12:01:13;99304.66;;;21.18;53.04
39449;BME280;25151;45.566;9.382;2023-02-24T12:07:35;99287.25;;;21.23;53.37
39449;BME280;25151;45.566;9.382;2023-02-24T12:10:45;99277.59;;;21.24;53.06
39449;BME280;25151;45.566;9.382;2023-02-24T12:13:53;99271.19;;;21.23;53.33
39449;BME280;25151;45.566;9.382;2023-02-24T12:17:03;99277.25;;;21.22;53.47
39449;BME280;25151;45.566;9.382;2023-02-24T12:20:26;99258.88;;;21.21;53.30
39449;BME280;25151;45.566;9.382;2023-02-24T12:23:39;99249.69;;;21.20;53.47
39449;BME280;25151;45.566;9.382;2023-02-24T12:30:10;99237.38;;;21.18;53.13
39449;BME280;25151;45.566;9.382;2023-02-24T12:36:54;99225.88;;;21.16;53.67
39449;BME280;25151;45.566;9.382;2023-02-24T12:46:41;99209.97;;;21.12;53.89
39449;BME280;25151;45.566;9.382;2023-02-24T12:54:01;99205.31;;;21.09;53.89
39449;BME280;25151;45.566;9.382;2023-02-24T13:07:46;99175.09;;;21.04;53.74
39449;BME280;25151;45.566;9.382;2023-02-24T13:11:53;99163.88;;;21.04;53.77
39449;BME280;25151;45.566;9.382;2023-02-24T13:14:35;99162.63;;;21.05;53.87
39449;BME280;25151;45.566;9.382;2023-02-24T13:17:45;99166.97;;;21.06;53.92
39449;BME280;25151;45.566;9.382;2023-02-24T13:20:47;99152.19;;;21.06;53.64
39449;BME280;25151;45.566;9.382;2023-02-24T13:23:58;99152.69;;;21.04;53.68
39449;BME280;25151;45.566;9.382;2023-02-24T13:33:39;99136.34;;;21.03;53.65
39449;BME280;25151;45.566;9.382;2023-02-24T13:36:49;99132.72;;;21.02;53.30
39449;BME280;25151;45.566;9.382;2023-02-24T13:39:50;99122.00;;;21.01;53.89
39449;BME280;25151;45.566;9.382;2023-02-24T13:43:00;99124.97;;;20.97;53.80
39449;BME280;25151;45.566;9.382;2023-02-24T13:46:03;99124.66;;;20.95;53.80
39449;BME280;25151;45.566;9.382;2023-02-24T13:59:02;99100.38;;;20.92;53.72
39449;BME280;25151;45.566;9.382;2023-02-24T14:02:27;99098.81;;;20.91;53.61
39449;BME280;25151;45.566;9.382;2023-02-24T14:05:34;99101.31;;;20.89;53.63
39449;BME280;25151;45.566;9.382;2023-02-24T14:08:58;99094.16;;;20.88;53.50
39449;BME280;25151;45.566;9.382;2023-02-24T14:12:25;99087.78;;;20.87;53.91
39449;BME280;25151;45.566;9.382;2023-02-24T14:15:30;99079.38;;;20.87;53.42
39449;BME280;25151;45.566;9.382;2023-02-24T14:18:31;99082.94;;;20.88;53.67
39449;BME280;25151;45.566;9.382;2023-02-24T14:21:32;99083.72;;;20.88;53.84
39449;BME280;25151;45.566;9.382;2023-02-24T14:24:33;99077.34;;;20.88;53.85
39449;BME280;25151;45.566;9.382;2023-02-24T14:27:36;99074.53;;;20.88;53.64
39449;BME280;25151;45.566;9.382;2023-02-24T14:30:38;99070.19;;;20.87;53.81
39449;BME280;25151;45.566;9.382;2023-02-24T14:33:44;99058.16;;;20.86;53.82
39449;BME280;25151;45.566;9.382;2023-02-24T14:36:45;99060.19;;;20.86;53.65
39449;BME280;25151;45.566;9.382;2023-02-24T14:40:02;99069.38;;;20.86;53.97
39449;BME280;25151;45.566;9.382;2023-02-24T14:43:13;99062.72;;;20.84;53.70
39449;BME280;25151;45.566;9.382;2023-02-24T14:46:14;99057.09;;;20.84;53.66
39449;BME280;25151;45.566;9.382;2023-02-24T14:49:18;99047.94;;;20.83;53.98
39449;BME280;25151;45.566;9.382;2023-02-24T14:52:34;99044.03;;;20.81;53.70
39449;BME280;25151;45.566;9.382;2023-02-24T14:55:41;99041.22;;;20.81;53.93
39449;BME280;25151;45.566;9.382;2023-02-24T14:58:52;99035.31;;;20.79;54.06
39449;BME280;25151;45.566;9.382;2023-02-24T15:01:55;99035.31;;;20.79;54.09
39449;BME280;25151;45.566;9.382;2023-02-24T15:04:57;99033.75;;;20.78;54.09
39449;BME280;25151;45.566;9.382;2023-02-24T15:08:00;99022.53;;;20.78;53.98
39449;BME280;25151;45.566;9.382;2023-02-24T15:11:28;99019.75;;;20.78;54.24
39449;BME280;25151;45.566;9.382;2023-02-24T15:14:29;99015.41;;;20.77;54.30
39449;BME280;25151;45.566;9.382;2023-02-24T15:17:31;99014.16;;;20.78;54.04
39449;BME280;25151;45.566;9.382;2023-02-24T15:20:40;99013.84;;;20.76;53.91
39449;BME280;25151;45.566;9.382;2023-02-24T15:27:25;98999.53;;;20.74;54.25
39449;BME280;25151;45.566;9.382;2023-02-24T15:30:58;98997.97;;;20.73;54.37
39449;BME280;25151;45.566;9.382;2023-02-24T15:34:00;98994.41;;;20.72;54.22
39449;BME280;25151;45.566;9.382;2023-02-24T15:37:13;98985.22;;;20.72;54.39
39449;BME280;25151;45.566;9.382;2023-02-24T15:40:19;98989.72;;;20.69;54.11
39449;BME280;25151;45.566;9.382;2023-02-24T15:43:43;98988.19;;;20.68;54.11
39449;BME280;25151;45.566;9.382;2023-02-24T15:46:53;98983.34;;;20.69;54.31
39449;BME280;25151;45.566;9.382;2023-02-24T15:49:54;98987.69;;;20.70;54.14
39449;BME280;25151;45.566;9.382;2023-02-24T15:52:59;98979.47;;;20.66;54.25
39449;BME280;25151;45.566;9.382;2023-02-24T15:56:04;98982.75;;;20.65;54.50
39449;BME280;25151;45.566;9.382;2023-02-24T15:59:13;98971.53;;;20.65;54.27
39449;BME280;25151;45.566;9.382;2023-02-24T16:02:19;98967.19;;;20.63;54.02
39449;BME280;25151;45.566;9.382;2023-02-24T16:05:25;98969.50;;;20.65;54.41
39449;BME280;25151;45.566;9.382;2023-02-24T16:08:26;98971.53;;;20.65;54.18
39449;BME280;25151;45.566;9.382;2023-02-24T16:11:30;98955.97;;;20.63;54.24
39449;BME280;25151;45.566;9.382;2023-02-24T16:14:42;98957.53;;;20.65;54.27
39449;BME280;25151;45.566;9.382;2023-02-24T16:17:45;98960.34;;;20.65;54.24
39449;BME280;25151;45.566;9.382;2023-02-24T16:20:47;98963.13;;;20.65;54.00
39449;BME280;25151;45.566;9.382;2023-02-24T16:23:54;98961.59;;;20.63;54.34
39449;BME280;25151;45.566;9.382;2023-02-24T16:26:55;98960.34;;;20.65;54.48
39449;BME280;25151;45.566;9.382;2023-02-24T16:29:57;98960.34;;;20.65;54.81
39449;BME280;25151;45.566;9.382;2023-02-24T16:32:59;98960.34;;;20.65;54.53
39449;BME280;25151;45.566;9.382;2023-02-24T16:36:01;98953.97;;;20.64;54.72
39449;BME280;25151;45.566;9.382;2023-02-24T16:39:02;98951.16;;;20.64;54.53
39449;BME280;25151;45.566;9.382;2023-02-24T16:42:04;98945.56;;;20.64;54.57
39449;BME280;25151;45.566;9.382;2023-02-24T16:45:09;98949.59;;;20.63;54.63
39449;BME280;25151;45.566;9.382;2023-02-24T16:48:23;98950.38;;;20.63;54.63
39449;BME280;25151;45.566;9.382;2023-02-24T16:51:25;98944.00;;;20.63;54.99
39449;BME280;25151;45.566;9.382;2023-02-24T16:54:28;98942.75;;;20.64;54.65
39449;BME280;25151;45.566;9.382;2023-02-24T16:57:29;98950.38;;;20.63;54.88
39449;BME280;25151;45.566;9.382;2023-02-24T17:00:31;98943.19;;;20.62;54.85
39449;BME280;25151;45.566;9.382;2023-02-24T17:11:54;98947.25;;;20.61;54.76
39449;BME280;25151;45.566;9.382;2023-02-24T17:14:58;98941.66;;;20.61;55.16
39449;BME280;25151;45.566;9.382;2023-02-24T17:17:59;98942.59;;;20.58;54.95
39449;BME280;25151;45.566;9.382;2023-02-24T17:21:00;98945.72;;;20.60;54.83
39449;BME280;25151;45.566;9.382;2023-02-24T17:24:01;98945.72;;;20.60;54.77
39449;BME280;25151;45.566;9.382;2023-02-24T17:27:03;98949.00;;;20.59;55.04
39449;BME280;25151;45.566;9.382;2023-02-24T17:30:04;98941.38;;;20.59;54.89
39449;BME280;25151;45.566;9.382;2023-02-24T17:33:05;98936.53;;;20.60;55.21
39449;BME280;25151;45.566;9.382;2023-02-24T17:36:06;98934.50;;;20.60;54.96
39449;BME280;25151;45.566;9.382;2023-02-24T17:39:07;98936.53;;;20.60;55.04
39449;BME280;25151;45.566;9.382;2023-02-24T17:42:08;98953.78;;;20.58;55.17
39449;BME280;25151;45.566;9.382;2023-02-24T17:45:11;98944.16;;;20.59;54.88
39449;BME280;25151;45.566;9.382;2023-02-24T17:48:14;98941.38;;;20.59;54.88
39449;BME280;25151;45.566;9.382;2023-02-24T17:51:16;98949.00;;;20.59;54.94
39449;BME280;25151;45.566;9.382;2023-02-24T17:54:18;98948.19;;;20.58;54.92
39449;BME280;25151;45.566;9.382;2023-02-24T17:57:19;98942.59;;;20.58;55.18
39449;BME280;25151;45.566;9.382;2023-02-24T18:00:20;98946.66;;;20.57;55.17
39449;BME280;25151;45.566;9.382;2023-02-24T18:06:51;98942.63;;;20.49;55.09
39449;BME280;25151;45.566;9.382;2023-02-24T18:09:53;98950.38;;;20.45;55.19
39449;BME280;25151;45.566;9.382;2023-02-24T18:12:54;98943.22;;;20.44;55.04
39449;BME280;25151;45.566;9.382;2023-02-24T18:15:55;98943.22;;;20.44;55.23
39449;BME280;25151;45.566;9.382;2023-02-24T18:18:58;98943.69;;;20.43;55.26
39449;BME280;25151;45.566;9.382;2023-02-24T18:21:59;98938.88;;;20.43;55.38
39449;BME280;25151;45.566;9.382;2023-02-24T18:25:00;98939.34;;;20.42;55.39